Hauptseite
METAR-TAF:

METAR-TAF

Flughäfen :

Flughafen Kerry

Killarney, Irland

Breite: 52-10-51N, Länge: 9-31-26W, Höhe: 34 m

Beobachtung

Neuester Wetterbericht von vor 5 Stunden und 5 Minuten, um 19:00 UTC
Wind 4 kt aus Süd/Südwest
Temperatur 12°C
Luftfeuchtigkeit 88%
Luftdruck 1002 hPa
Sichtweite 10 km oder mehr
Durchbrochene Bewölkung in der Höhe von 2500 ft

METAR: EIKY 231900Z 20004KT 9999 BKN025 12/10 Q1002

Zeit: 01:05 (00:05 UTC)

Prognose

Neuester Wetterbericht von vor 7 Stunden und 5 Minuten, um 17:00 UTC
Gültige Prognose vom 23 um 18 UTC bis 23 um 21 UTC
Wind 8 kt aus Südwest
Sichtweite 10 km oder mehr
Aufgelockert bewölkt in der Höhe von 1200 ft
Durchbrochene Bewölkung in der Höhe von 2000 ft

TAF: EIKY 231700Z 2318/2321 23008KT 9999 SCT012 BKN020

Wetterbeobachtungen und Prognosen von mehr als 4000 Flughäfen (METAR und TAF Bericht).

Die verfügbaren Stationen werden durch gelbe und rote Markierungen auf der Karte dargestellt.

Führen Sie die Maus auf sie, um den Namen der Station zu sehen.

Darauf klicken, um die Beobachtung von Wetterbeobachtungen und Prognosen zu sehen.

Um die Karte zu ändern : klicken Sie auf den grünen Tasten mit einem schwarzen Kreuz Zum Vergrößern, auf den grünen Button mit einem Gedankenstrich zu verkleinern, oder auf die grünen Pfeile für benachbarte Karten.


METAR-TAF: